sensor_id;sensor_type;location;lat;lon;timestamp;temperature;humidity
70421;SHT31;57848;51.938;15.520;2023-11-19T00:01:34;3.18;94.65
70421;SHT31;57848;51.938;15.520;2023-11-19T00:04:00;3.15;94.98
70421;SHT31;57848;51.938;15.520;2023-11-19T00:06:25;3.13;95.05
70421;SHT31;57848;51.938;15.520;2023-11-19T00:08:51;3.12;95.05
70421;SHT31;57848;51.938;15.520;2023-11-19T00:11:16;3.16;94.95
70421;SHT31;57848;51.938;15.520;2023-11-19T00:13:42;3.08;95.06
70421;SHT31;57848;51.938;15.520;2023-11-19T00:16:08;3.05;95.15
70421;SHT31;57848;51.938;15.520;2023-11-19T00:18:35;3.08;95.14
70421;SHT31;57848;51.938;15.520;2023-11-19T00:21:01;3.06;95.04
70421;SHT31;57848;51.938;15.520;2023-11-19T00:23:27;3.06;95.14
70421;SHT31;57848;51.938;15.520;2023-11-19T00:25:52;3.06;95.32
70421;SHT31;57848;51.938;15.520;2023-11-19T00:28:18;3.01;95.44
70421;SHT31;57848;51.938;15.520;2023-11-19T00:30:43;3.02;95.49
70421;SHT31;57848;51.938;15.520;2023-11-19T00:33:09;3.02;95.40
70421;SHT31;57848;51.938;15.520;2023-11-19T00:35:34;3.06;95.52
70421;SHT31;57848;51.938;15.520;2023-11-19T00:37:59;3.09;95.04
70421;SHT31;57848;51.938;15.520;2023-11-19T00:40:26;3.11;95.13
70421;SHT31;57848;51.938;15.520;2023-11-19T00:42:51;3.04;95.42
70421;SHT31;57848;51.938;15.520;2023-11-19T00:45:17;3.11;95.36
70421;SHT31;57848;51.938;15.520;2023-11-19T00:47:42;3.05;95.22
70421;SHT31;57848;51.938;15.520;2023-11-19T00:50:08;3.15;95.05
70421;SHT31;57848;51.938;15.520;2023-11-19T00:52:38;3.13;95.12
70421;SHT31;57848;51.938;15.520;2023-11-19T00:55:04;3.19;94.90
70421;SHT31;57848;51.938;15.520;2023-11-19T00:57:31;3.16;95.05
70421;SHT31;57848;51.938;15.520;2023-11-19T00:59:58;3.12;95.01
70421;SHT31;57848;51.938;15.520;2023-11-19T01:02:24;3.16;94.97
70421;SHT31;57848;51.938;15.520;2023-11-19T01:04:50;3.15;94.87
70421;SHT31;57848;51.938;15.520;2023-11-19T01:07:15;3.22;94.91
70421;SHT31;57848;51.938;15.520;2023-11-19T01:09:44;3.19;94.86
70421;SHT31;57848;51.938;15.520;2023-11-19T01:12:09;3.27;94.79
70421;SHT31;57848;51.938;15.520;2023-11-19T01:14:35;3.20;94.67
70421;SHT31;57848;51.938;15.520;2023-11-19T01:17:01;3.16;94.67
70421;SHT31;57848;51.938;15.520;2023-11-19T01:19:27;3.23;94.81
70421;SHT31;57848;51.938;15.520;2023-11-19T01:21:54;3.25;94.32
70421;SHT31;57848;51.938;15.520;2023-11-19T01:24:19;3.12;94.72
70421;SHT31;57848;51.938;15.520;2023-11-19T01:26:45;3.20;94.65
70421;SHT31;57848;51.938;15.520;2023-11-19T01:29:12;3.13;94.86
70421;SHT31;57848;51.938;15.520;2023-11-19T01:31:41;3.18;94.90
70421;SHT31;57848;51.938;15.520;2023-11-19T01:34:06;3.16;94.57
70421;SHT31;57848;51.938;15.520;2023-11-19T01:36:32;3.23;94.57
70421;SHT31;57848;51.938;15.520;2023-11-19T01:38:57;3.15;94.95
70421;SHT31;57848;51.938;15.520;2023-11-19T01:41:23;3.15;94.94
70421;SHT31;57848;51.938;15.520;2023-11-19T01:43:50;3.22;94.57
70421;SHT31;57848;51.938;15.520;2023-11-19T01:46:16;3.22;94.57
70421;SHT31;57848;51.938;15.520;2023-11-19T01:48:44;3.19;94.72
70421;SHT31;57848;51.938;15.520;2023-11-19T01:51:12;3.19;94.81
70421;SHT31;57848;51.938;15.520;2023-11-19T01:53:39;3.20;94.66
70421;SHT31;57848;51.938;15.520;2023-11-19T01:56:07;3.12;94.70
70421;SHT31;57848;51.938;15.520;2023-11-19T01:58:35;3.16;94.99
70421;SHT31;57848;51.938;15.520;2023-11-19T02:01:01;3.22;94.95
70421;SHT31;57848;51.938;15.520;2023-11-19T02:03:31;3.19;94.51
70421;SHT31;57848;51.938;15.520;2023-11-19T02:05:59;3.09;94.79
70421;SHT31;57848;51.938;15.520;2023-11-19T02:08:24;3.11;94.60
70421;SHT31;57848;51.938;15.520;2023-11-19T02:10:51;3.09;94.79
70421;SHT31;57848;51.938;15.520;2023-11-19T02:13:18;3.18;94.73
70421;SHT31;57848;51.938;15.520;2023-11-19T02:15:44;3.15;94.91
70421;SHT31;57848;51.938;15.520;2023-11-19T02:18:22;3.13;94.93
70421;SHT31;57848;51.938;15.520;2023-11-19T02:20:51;3.12;94.88
70421;SHT31;57848;51.938;15.520;2023-11-19T02:23:18;3.16;94.59
70421;SHT31;57848;51.938;15.520;2023-11-19T02:26:02;3.11;94.69
70421;SHT31;57848;51.938;15.520;2023-11-19T02:28:31;3.15;94.49
70421;SHT31;57848;51.938;15.520;2023-11-19T02:30:58;3.06;94.94
70421;SHT31;57848;51.938;15.520;2023-11-19T02:33:24;3.11;94.82
70421;SHT31;57848;51.938;15.520;2023-11-19T02:35:50;3.13;94.61
70421;SHT31;57848;51.938;15.520;2023-11-19T02:38:16;3.12;94.70
70421;SHT31;57848;51.938;15.520;2023-11-19T02:40:41;3.12;94.70
70421;SHT31;57848;51.938;15.520;2023-11-19T02:43:06;3.16;94.64
70421;SHT31;57848;51.938;15.520;2023-11-19T02:45:33;3.16;94.41
70421;SHT31;57848;51.938;15.520;2023-11-19T02:47:59;3.15;94.61
70421;SHT31;57848;51.938;15.520;2023-11-19T02:50:28;3.22;94.76
70421;SHT31;57848;51.938;15.520;2023-11-19T02:52:55;3.22;94.33
70421;SHT31;57848;51.938;15.520;2023-11-19T02:55:23;3.18;94.47
70421;SHT31;57848;51.938;15.520;2023-11-19T02:57:50;3.16;94.34
70421;SHT31;57848;51.938;15.520;2023-11-19T03:00:22;3.15;94.47
70421;SHT31;57848;51.938;15.520;2023-11-19T03:02:56;3.11;94.51
70421;SHT31;57848;51.938;15.520;2023-11-19T03:05:30;3.12;94.38
70421;SHT31;57848;51.938;15.520;2023-11-19T03:07:56;3.13;94.33
70421;SHT31;57848;51.938;15.520;2023-11-19T03:10:22;3.12;94.34
70421;SHT31;57848;51.938;15.520;2023-11-19T03:12:47;3.22;94.23
70421;SHT31;57848;51.938;15.520;2023-11-19T03:15:12;3.15;94.62
70421;SHT31;57848;51.938;15.520;2023-11-19T03:17:39;3.15;94.50
70421;SHT31;57848;51.938;15.520;2023-11-19T03:20:06;3.09;94.60
70421;SHT31;57848;51.938;15.520;2023-11-19T03:22:32;3.12;94.58
70421;SHT31;57848;51.938;15.520;2023-11-19T03:25:01;3.18;94.47
70421;SHT31;57848;51.938;15.520;2023-11-19T03:27:26;3.20;94.33
70421;SHT31;57848;51.938;15.520;2023-11-19T03:29:51;3.13;94.47
70421;SHT31;57848;51.938;15.520;2023-11-19T03:32:17;3.18;94.17
70421;SHT31;57848;51.938;15.520;2023-11-19T03:34:42;3.23;94.21
70421;SHT31;57848;51.938;15.520;2023-11-19T03:37:08;3.16;94.25
70421;SHT31;57848;51.938;15.520;2023-11-19T03:39:34;3.13;94.15
70421;SHT31;57848;51.938;15.520;2023-11-19T03:41:59;3.11;94.32
70421;SHT31;57848;51.938;15.520;2023-11-19T03:44:26;3.16;94.32
70421;SHT31;57848;51.938;15.520;2023-11-19T03:46:52;3.12;94.49
70421;SHT31;57848;51.938;15.520;2023-11-19T03:49:17;3.19;94.20
70421;SHT31;57848;51.938;15.520;2023-11-19T03:51:43;3.19;94.30
70421;SHT31;57848;51.938;15.520;2023-11-19T03:54:09;3.15;94.58
70421;SHT31;57848;51.938;15.520;2023-11-19T03:56:34;3.16;94.06
70421;SHT31;57848;51.938;15.520;2023-11-19T03:59:00;3.22;93.88
70421;SHT31;57848;51.938;15.520;2023-11-19T04:01:25;3.22;94.18
70421;SHT31;57848;51.938;15.520;2023-11-19T04:03:51;3.25;94.16
70421;SHT31;57848;51.938;15.520;2023-11-19T04:06:16;3.20;94.03
70421;SHT31;57848;51.938;15.520;2023-11-19T04:08:42;3.16;94.12
70421;SHT31;57848;51.938;15.520;2023-11-19T04:11:07;3.20;93.98
70421;SHT31;57848;51.938;15.520;2023-11-19T04:13:34;3.19;93.87
70421;SHT31;57848;51.938;15.520;2023-11-19T04:15:59;3.20;94.11
70421;SHT31;57848;51.938;15.520;2023-11-19T04:18:25;3.12;94.03
70421;SHT31;57848;51.938;15.520;2023-11-19T04:20:50;3.22;94.20
70421;SHT31;57848;51.938;15.520;2023-11-19T04:23:16;3.09;94.11
70421;SHT31;57848;51.938;15.520;2023-11-19T04:25:41;3.18;94.66
70421;SHT31;57848;51.938;15.520;2023-11-19T04:28:07;3.11;94.31
70421;SHT31;57848;51.938;15.520;2023-11-19T04:30:33;3.04;94.53
70421;SHT31;57848;51.938;15.520;2023-11-19T04:32:59;3.01;94.73
70421;SHT31;57848;51.938;15.520;2023-11-19T04:35:24;3.09;94.72
70421;SHT31;57848;51.938;15.520;2023-11-19T04:37:52;2.96;94.67
70421;SHT31;57848;51.938;15.520;2023-11-19T04:40:17;3.05;94.99
70421;SHT31;57848;51.938;15.520;2023-11-19T04:42:48;2.99;94.76
70421;SHT31;57848;51.938;15.520;2023-11-19T04:45:13;2.96;94.62
70421;SHT31;57848;51.938;15.520;2023-11-19T04:47:38;3.04;94.80
70421;SHT31;57848;51.938;15.520;2023-11-19T04:50:04;3.01;94.94
70421;SHT31;57848;51.938;15.520;2023-11-19T04:52:30;2.99;94.77
70421;SHT31;57848;51.938;15.520;2023-11-19T04:54:55;3.01;94.79
70421;SHT31;57848;51.938;15.520;2023-11-19T04:57:21;3.02;94.75
70421;SHT31;57848;51.938;15.520;2023-11-19T04:59:46;3.04;95.05
70421;SHT31;57848;51.938;15.520;2023-11-19T05:02:12;3.02;94.71
70421;SHT31;57848;51.938;15.520;2023-11-19T05:04:42;2.98;94.79
70421;SHT31;57848;51.938;15.520;2023-11-19T05:07:08;3.06;95.02
70421;SHT31;57848;51.938;15.520;2023-11-19T05:09:33;3.06;95.02
70421;SHT31;57848;51.938;15.520;2023-11-19T05:11:59;3.04;94.95
70421;SHT31;57848;51.938;15.520;2023-11-19T05:14:24;2.98;94.72
70421;SHT31;57848;51.938;15.520;2023-11-19T05:16:50;3.02;94.81
70421;SHT31;57848;51.938;15.520;2023-11-19T05:19:15;3.01;94.87
70421;SHT31;57848;51.938;15.520;2023-11-19T05:21:44;3.01;94.58
70421;SHT31;57848;51.938;15.520;2023-11-19T05:24:09;3.01;94.74
70421;SHT31;57848;51.938;15.520;2023-11-19T05:26:34;2.98;95.04
70421;SHT31;57848;51.938;15.520;2023-11-19T05:29:00;3.02;94.95
70421;SHT31;57848;51.938;15.520;2023-11-19T05:31:25;3.09;95.06
70421;SHT31;57848;51.938;15.520;2023-11-19T05:33:50;2.98;95.19
70421;SHT31;57848;51.938;15.520;2023-11-19T05:36:16;3.04;94.87
70421;SHT31;57848;51.938;15.520;2023-11-19T05:38:42;3.04;94.92
70421;SHT31;57848;51.938;15.520;2023-11-19T05:41:07;3.04;94.97
70421;SHT31;57848;51.938;15.520;2023-11-19T05:43:33;3.11;94.82
70421;SHT31;57848;51.938;15.520;2023-11-19T05:45:58;3.04;94.98
70421;SHT31;57848;51.938;15.520;2023-11-19T05:48:26;3.01;94.80
70421;SHT31;57848;51.938;15.520;2023-11-19T05:50:51;2.96;95.16
70421;SHT31;57848;51.938;15.520;2023-11-19T05:53:17;2.92;95.56
70421;SHT31;57848;51.938;15.520;2023-11-19T05:55:43;2.99;95.09
70421;SHT31;57848;51.938;15.520;2023-11-19T05:58:23;3.01;95.08
70421;SHT31;57848;51.938;15.520;2023-11-19T06:00:49;3.05;95.29
70421;SHT31;57848;51.938;15.520;2023-11-19T06:03:16;3.08;94.85
70421;SHT31;57848;51.938;15.520;2023-11-19T06:05:44;2.98;94.74
70421;SHT31;57848;51.938;15.520;2023-11-19T06:08:09;3.05;94.89
70421;SHT31;57848;51.938;15.520;2023-11-19T06:10:35;3.06;95.24
70421;SHT31;57848;51.938;15.520;2023-11-19T06:13:00;3.04;94.78
70421;SHT31;57848;51.938;15.520;2023-11-19T06:15:30;2.92;94.92
70421;SHT31;57848;51.938;15.520;2023-11-19T06:17:55;2.96;95.18
70421;SHT31;57848;51.938;15.520;2023-11-19T06:20:21;2.87;94.96
70421;SHT31;57848;51.938;15.520;2023-11-19T06:22:46;2.83;95.35
70421;SHT31;57848;51.938;15.520;2023-11-19T06:25:12;2.77;95.36
70421;SHT31;57848;51.938;15.520;2023-11-19T06:27:40;2.75;95.43
70421;SHT31;57848;51.938;15.520;2023-11-19T06:30:07;2.77;95.58
70421;SHT31;57848;51.938;15.520;2023-11-19T06:32:32;2.74;95.55
70421;SHT31;57848;51.938;15.520;2023-11-19T06:34:58;2.77;95.60
70421;SHT31;57848;51.938;15.520;2023-11-19T06:37:23;2.78;95.65
70421;SHT31;57848;51.938;15.520;2023-11-19T06:39:49;2.78;95.51
70421;SHT31;57848;51.938;15.520;2023-11-19T06:42:14;2.84;95.57
70421;SHT31;57848;51.938;15.520;2023-11-19T06:44:39;2.77;95.60
70421;SHT31;57848;51.938;15.520;2023-11-19T06:47:05;2.83;95.56
70421;SHT31;57848;51.938;15.520;2023-11-19T06:49:31;2.75;95.76
70421;SHT31;57848;51.938;15.520;2023-11-19T06:51:57;2.75;95.48
70421;SHT31;57848;51.938;15.520;2023-11-19T06:54:22;2.70;95.76
70421;SHT31;57848;51.938;15.520;2023-11-19T06:56:48;2.67;95.64
70421;SHT31;57848;51.938;15.520;2023-11-19T06:59:14;2.70;95.79
70421;SHT31;57848;51.938;15.520;2023-11-19T07:01:39;2.65;95.96
70421;SHT31;57848;51.938;15.520;2023-11-19T07:04:10;2.74;95.64
70421;SHT31;57848;51.938;15.520;2023-11-19T07:06:36;2.71;96.04
70421;SHT31;57848;51.938;15.520;2023-11-19T07:09:02;2.65;95.91
70421;SHT31;57848;51.938;15.520;2023-11-19T07:11:41;2.65;96.07
70421;SHT31;57848;51.938;15.520;2023-11-19T07:14:09;2.68;96.03
70421;SHT31;57848;51.938;15.520;2023-11-19T07:16:35;2.75;96.07
70421;SHT31;57848;51.938;15.520;2023-11-19T07:19:03;2.70;95.90
70421;SHT31;57848;51.938;15.520;2023-11-19T07:21:28;2.68;96.08
70421;SHT31;57848;51.938;15.520;2023-11-19T07:23:57;2.80;96.14
70421;SHT31;57848;51.938;15.520;2023-11-19T07:26:23;2.78;96.18
70421;SHT31;57848;51.938;15.520;2023-11-19T07:28:51;2.74;96.53
70421;SHT31;57848;51.938;15.520;2023-11-19T07:31:17;2.77;96.31
70421;SHT31;57848;51.938;15.520;2023-11-19T07:33:46;2.77;96.55
70421;SHT31;57848;51.938;15.520;2023-11-19T07:36:12;2.75;96.59
70421;SHT31;57848;51.938;15.520;2023-11-19T07:38:37;2.80;96.40
70421;SHT31;57848;51.938;15.520;2023-11-19T07:41:04;2.87;96.31
70421;SHT31;57848;51.938;15.520;2023-11-19T07:43:30;2.87;96.60
70421;SHT31;57848;51.938;15.520;2023-11-19T07:45:56;2.85;96.44
70421;SHT31;57848;51.938;15.520;2023-11-19T07:48:21;2.91;96.44
70421;SHT31;57848;51.938;15.520;2023-11-19T07:50:49;2.89;96.60
70421;SHT31;57848;51.938;15.520;2023-11-19T07:53:17;2.78;96.70
70421;SHT31;57848;51.938;15.520;2023-11-19T07:55:42;2.83;96.80
70421;SHT31;57848;51.938;15.520;2023-11-19T07:58:10;2.78;97.23
70421;SHT31;57848;51.938;15.520;2023-11-19T08:00:35;2.80;97.50
70421;SHT31;57848;51.938;15.520;2023-11-19T08:03:01;2.80;97.49
70421;SHT31;57848;51.938;15.520;2023-11-19T08:05:26;2.83;97.48
70421;SHT31;57848;51.938;15.520;2023-11-19T08:07:52;2.73;97.78
70421;SHT31;57848;51.938;15.520;2023-11-19T08:10:19;2.74;98.16
70421;SHT31;57848;51.938;15.520;2023-11-19T08:12:44;2.80;98.07
70421;SHT31;57848;51.938;15.520;2023-11-19T08:15:10;2.77;98.06
70421;SHT31;57848;51.938;15.520;2023-11-19T08:17:36;2.81;98.06
70421;SHT31;57848;51.938;15.520;2023-11-19T08:20:01;2.84;98.20
70421;SHT31;57848;51.938;15.520;2023-11-19T08:22:28;2.74;98.80
70421;SHT31;57848;51.938;15.520;2023-11-19T08:24:53;2.70;99.99
70421;SHT31;57848;51.938;15.520;2023-11-19T08:27:19;2.67;99.99
70421;SHT31;57848;51.938;15.520;2023-11-19T08:29:44;2.68;99.99
70421;SHT31;57848;51.938;15.520;2023-11-19T08:32:09;2.73;99.99
70421;SHT31;57848;51.938;15.520;2023-11-19T08:34:36;2.78;99.99
70421;SHT31;57848;51.938;15.520;2023-11-19T08:37:01;2.75;99.99
70421;SHT31;57848;51.938;15.520;2023-11-19T08:39:27;2.81;99.99
70421;SHT31;57848;51.938;15.520;2023-11-19T08:41:52;2.91;99.99
70421;SHT31;57848;51.938;15.520;2023-11-19T08:44:17;2.88;99.99
70421;SHT31;57848;51.938;15.520;2023-11-19T08:46:51;2.88;99.99
70421;SHT31;57848;51.938;15.520;2023-11-19T08:49:17;2.89;99.99
70421;SHT31;57848;51.938;15.520;2023-11-19T08:51:42;2.92;99.64
70421;SHT31;57848;51.938;15.520;2023-11-19T08:54:08;2.99;99.43
70421;SHT31;57848;51.938;15.520;2023-11-19T08:56:33;3.05;99.42
70421;SHT31;57848;51.938;15.520;2023-11-19T08:59:00;3.05;99.06
70421;SHT31;57848;51.938;15.520;2023-11-19T09:01:26;3.12;99.24
70421;SHT31;57848;51.938;15.520;2023-11-19T09:03:51;3.15;99.27
70421;SHT31;57848;51.938;15.520;2023-11-19T09:06:17;3.08;98.99
70421;SHT31;57848;51.938;15.520;2023-11-19T09:08:42;3.09;99.53
70421;SHT31;57848;51.938;15.520;2023-11-19T09:11:08;3.18;99.27
70421;SHT31;57848;51.938;15.520;2023-11-19T09:13:35;3.13;99.60
70421;SHT31;57848;51.938;15.520;2023-11-19T09:16:00;3.15;99.99
70421;SHT31;57848;51.938;15.520;2023-11-19T09:18:29;3.16;99.99
70421;SHT31;57848;51.938;15.520;2023-11-19T09:20:54;3.25;99.99
70421;SHT31;57848;51.938;15.520;2023-11-19T09:23:20;3.25;99.99
70421;SHT31;57848;51.938;15.520;2023-11-19T09:25:45;3.19;96.02
70421;SHT31;57848;51.938;15.520;2023-11-19T09:28:11;3.15;96.15
70421;SHT31;57848;51.938;15.520;2023-11-19T09:30:36;3.13;96.17
70421;SHT31;57848;51.938;15.520;2023-11-19T09:33:02;3.22;96.22
70421;SHT31;57848;51.938;15.520;2023-11-19T09:35:27;3.20;96.22
70421;SHT31;57848;51.938;15.520;2023-11-19T09:37:53;3.25;96.21
70421;SHT31;57848;51.938;15.520;2023-11-19T09:40:18;3.27;96.24
70421;SHT31;57848;51.938;15.520;2023-11-19T09:42:44;3.30;96.27
70421;SHT31;57848;51.938;15.520;2023-11-19T09:45:16;3.36;96.30
70421;SHT31;57848;51.938;15.520;2023-11-19T09:47:46;3.37;96.29
70421;SHT31;57848;51.938;15.520;2023-11-19T09:50:16;3.44;96.31
70421;SHT31;57848;51.938;15.520;2023-11-19T09:52:44;3.47;96.33
70421;SHT31;57848;51.938;15.520;2023-11-19T09:55:09;3.53;96.36
70421;SHT31;57848;51.938;15.520;2023-11-19T09:57:35;3.54;96.38
70421;SHT31;57848;51.938;15.520;2023-11-19T10:00:04;3.53;96.39
70421;SHT31;57848;51.938;15.520;2023-11-19T10:02:31;3.60;96.38
70421;SHT31;57848;51.938;15.520;2023-11-19T10:04:59;3.60;96.40
70421;SHT31;57848;51.938;15.520;2023-11-19T10:07:26;3.67;96.44
70421;SHT31;57848;51.938;15.520;2023-11-19T10:09:52;3.74;96.42
70421;SHT31;57848;51.938;15.520;2023-11-19T10:12:18;3.77;96.44
70421;SHT31;57848;51.938;15.520;2023-11-19T10:14:44;3.83;96.46
70421;SHT31;57848;51.938;15.520;2023-11-19T10:17:10;3.85;96.45
70421;SHT31;57848;51.938;15.520;2023-11-19T10:19:35;3.91;96.50
70421;SHT31;57848;51.938;15.520;2023-11-19T10:22:04;3.98;96.48
70421;SHT31;57848;51.938;15.520;2023-11-19T10:24:33;3.98;96.50
70421;SHT31;57848;51.938;15.520;2023-11-19T10:26:59;4.04;96.54
70421;SHT31;57848;51.938;15.520;2023-11-19T10:29:26;4.11;96.52
70421;SHT31;57848;51.938;15.520;2023-11-19T10:32:00;4.11;96.57
70421;SHT31;57848;51.938;15.520;2023-11-19T10:34:26;4.14;96.62
70421;SHT31;57848;51.938;15.520;2023-11-19T10:36:52;4.18;96.69
70421;SHT31;57848;51.938;15.520;2023-11-19T10:39:17;4.28;96.80
70421;SHT31;57848;51.938;15.520;2023-11-19T10:41:43;4.35;98.01
70421;SHT31;57848;51.938;15.520;2023-11-19T10:44:09;4.41;98.47
70421;SHT31;57848;51.938;15.520;2023-11-19T10:46:41;4.49;98.89
70421;SHT31;57848;51.938;15.520;2023-11-19T10:49:07;4.55;99.35
70421;SHT31;57848;51.938;15.520;2023-11-19T10:51:33;4.60;99.46
70421;SHT31;57848;51.938;15.520;2023-11-19T10:54:03;4.74;99.49
70421;SHT31;57848;51.938;15.520;2023-11-19T10:56:32;4.76;99.76
70421;SHT31;57848;51.938;15.520;2023-11-19T10:59:01;4.83;99.86
70421;SHT31;57848;51.938;15.520;2023-11-19T11:01:39;4.95;99.98
70421;SHT31;57848;51.938;15.520;2023-11-19T11:04:23;5.05;99.99
70421;SHT31;57848;51.938;15.520;2023-11-19T11:06:48;5.05;99.99
70421;SHT31;57848;51.938;15.520;2023-11-19T11:09:16;5.18;99.99
70421;SHT31;57848;51.938;15.520;2023-11-19T11:11:48;5.21;99.99
70421;SHT31;57848;51.938;15.520;2023-11-19T11:14:16;5.34;99.99
70421;SHT31;57848;51.938;15.520;2023-11-19T11:16:43;5.34;99.99
70421;SHT31;57848;51.938;15.520;2023-11-19T11:19:13;5.39;99.99
70421;SHT31;57848;51.938;15.520;2023-11-19T11:21:40;5.46;99.99
70421;SHT31;57848;51.938;15.520;2023-11-19T11:29:35;5.70;99.99
70421;SHT31;57848;51.938;15.520;2023-11-19T11:32:34;5.79;99.99
70421;SHT31;57848;51.938;15.520;2023-11-19T11:37:49;6.02;99.99
70421;SHT31;57848;51.938;15.520;2023-11-19T11:40:16;6.20;99.99
70421;SHT31;57848;51.938;15.520;2023-11-19T11:42:44;6.31;99.99
70421;SHT31;57848;51.938;15.520;2023-11-19T11:45:11;6.35;99.99
70421;SHT31;57848;51.938;15.520;2023-11-19T11:50:16;6.51;99.99
70421;SHT31;57848;51.938;15.520;2023-11-19T11:55:28;6.62;99.99
70421;SHT31;57848;51.938;15.520;2023-11-19T11:57:54;6.67;99.99
70421;SHT31;57848;51.938;15.520;2023-11-19T12:00:29;6.74;99.99
70421;SHT31;57848;51.938;15.520;2023-11-19T12:02:56;6.79;99.99
70421;SHT31;57848;51.938;15.520;2023-11-19T12:05:22;6.92;99.99
70421;SHT31;57848;51.938;15.520;2023-11-19T12:07:59;7.03;99.99
70421;SHT31;57848;51.938;15.520;2023-11-19T12:10:29;7.16;99.99
70421;SHT31;57848;51.938;15.520;2023-11-19T12:13:00;7.27;99.88
70421;SHT31;57848;51.938;15.520;2023-11-19T12:15:26;7.28;99.97
70421;SHT31;57848;51.938;15.520;2023-11-19T12:17:53;7.37;99.99
70421;SHT31;57848;51.938;15.520;2023-11-19T12:20:23;7.42;99.98
70421;SHT31;57848;51.938;15.520;2023-11-19T12:22:49;7.60;99.91
70421;SHT31;57848;51.938;15.520;2023-11-19T12:25:16;7.65;99.55
70421;SHT31;57848;51.938;15.520;2023-11-19T12:27:44;7.63;99.99
70421;SHT31;57848;51.938;15.520;2023-11-19T12:30:10;7.75;99.81
70421;SHT31;57848;51.938;15.520;2023-11-19T12:32:41;7.85;99.95
70421;SHT31;57848;51.938;15.520;2023-11-19T12:35:11;7.92;99.99
70421;SHT31;57848;51.938;15.520;2023-11-19T12:40:14;8.13;99.99
70421;SHT31;57848;51.938;15.520;2023-11-19T12:42:39;8.19;99.99
70421;SHT31;57848;51.938;15.520;2023-11-19T12:45:06;8.42;99.99
70421;SHT31;57848;51.938;15.520;2023-11-19T12:47:33;8.59;99.89
70421;SHT31;57848;51.938;15.520;2023-11-19T12:49:58;8.63;99.58
70421;SHT31;57848;51.938;15.520;2023-11-19T12:52:24;8.66;99.94
70421;SHT31;57848;51.938;15.520;2023-11-19T12:54:50;8.74;99.64
70421;SHT31;57848;51.938;15.520;2023-11-19T12:57:16;8.88;99.39
70421;SHT31;57848;51.938;15.520;2023-11-19T12:59:54;9.00;99.58
70421;SHT31;57848;51.938;15.520;2023-11-19T13:02:20;9.05;99.32
70421;SHT31;57848;51.938;15.520;2023-11-19T13:04:46;9.00;99.47
70421;SHT31;57848;51.938;15.520;2023-11-19T13:07:11;9.01;99.24
70421;SHT31;57848;51.938;15.520;2023-11-19T13:09:37;9.10;98.83
70421;SHT31;57848;51.938;15.520;2023-11-19T13:12:13;9.04;99.29
70421;SHT31;57848;51.938;15.520;2023-11-19T13:14:39;9.04;99.38
70421;SHT31;57848;51.938;15.520;2023-11-19T13:17:05;9.11;99.07
70421;SHT31;57848;51.938;15.520;2023-11-19T13:19:31;9.08;99.20
70421;SHT31;57848;51.938;15.520;2023-11-19T13:21:56;9.11;99.45
70421;SHT31;57848;51.938;15.520;2023-11-19T13:24:22;9.14;99.36
70421;SHT31;57848;51.938;15.520;2023-11-19T13:26:47;9.18;99.18
70421;SHT31;57848;51.938;15.520;2023-11-19T13:29:13;9.21;99.57
70421;SHT31;57848;51.938;15.520;2023-11-19T13:31:38;9.19;99.31
70421;SHT31;57848;51.938;15.520;2023-11-19T13:34:04;9.31;98.82
70421;SHT31;57848;51.938;15.520;2023-11-19T13:36:32;9.28;99.33
70421;SHT31;57848;51.938;15.520;2023-11-19T13:38:57;9.35;98.82
70421;SHT31;57848;51.938;15.520;2023-11-19T13:41:25;9.32;99.45
70421;SHT31;57848;51.938;15.520;2023-11-19T13:43:50;9.38;99.31
70421;SHT31;57848;51.938;15.520;2023-11-19T13:46:16;9.43;99.33
70421;SHT31;57848;51.938;15.520;2023-11-19T13:48:41;9.50;99.13
70421;SHT31;57848;51.938;15.520;2023-11-19T13:51:07;9.53;99.10
70421;SHT31;57848;51.938;15.520;2023-11-19T13:53:32;9.60;99.25
70421;SHT31;57848;51.938;15.520;2023-11-19T13:55:58;9.73;98.61
70421;SHT31;57848;51.938;15.520;2023-11-19T13:58:23;9.76;98.68
70421;SHT31;57848;51.938;15.520;2023-11-19T14:00:49;9.83;98.18
70421;SHT31;57848;51.938;15.520;2023-11-19T14:03:15;9.82;98.07
70421;SHT31;57848;51.938;15.520;2023-11-19T14:05:41;9.79;98.56
70421;SHT31;57848;51.938;15.520;2023-11-19T14:08:07;9.76;98.88
70421;SHT31;57848;51.938;15.520;2023-11-19T14:10:39;9.84;98.32
70421;SHT31;57848;51.938;15.520;2023-11-19T14:13:08;9.84;98.28
70421;SHT31;57848;51.938;15.520;2023-11-19T14:15:33;9.77;98.38
70421;SHT31;57848;51.938;15.520;2023-11-19T14:17:59;9.82;98.10
70421;SHT31;57848;51.938;15.520;2023-11-19T14:20:24;9.82;97.81
70421;SHT31;57848;51.938;15.520;2023-11-19T14:22:51;9.72;98.32
70421;SHT31;57848;51.938;15.520;2023-11-19T14:25:18;9.69;98.14
70421;SHT31;57848;51.938;15.520;2023-11-19T14:27:44;9.62;98.57
70421;SHT31;57848;51.938;15.520;2023-11-19T14:30:12;9.57;98.83
70421;SHT31;57848;51.938;15.520;2023-11-19T14:32:39;9.62;98.38
70421;SHT31;57848;51.938;15.520;2023-11-19T14:35:06;9.59;98.51
70421;SHT31;57848;51.938;15.520;2023-11-19T14:37:32;9.59;98.72
70421;SHT31;57848;51.938;15.520;2023-11-19T14:39:58;9.62;98.77
70421;SHT31;57848;51.938;15.520;2023-11-19T14:42:24;9.63;98.53
70421;SHT31;57848;51.938;15.520;2023-11-19T14:44:51;9.67;97.84
70421;SHT31;57848;51.938;15.520;2023-11-19T14:47:18;9.64;98.16
70421;SHT31;57848;51.938;15.520;2023-11-19T14:49:44;9.72;97.08
70421;SHT31;57848;51.938;15.520;2023-11-19T14:52:09;9.66;97.11
70421;SHT31;57848;51.938;15.520;2023-11-19T14:54:35;9.72;97.14
70421;SHT31;57848;51.938;15.520;2023-11-19T14:57:01;9.69;97.59
70421;SHT31;57848;51.938;15.520;2023-11-19T14:59:26;9.72;96.87
70421;SHT31;57848;51.938;15.520;2023-11-19T15:01:52;9.67;97.11
70421;SHT31;57848;51.938;15.520;2023-11-19T15:04:17;9.69;97.50
70421;SHT31;57848;51.938;15.520;2023-11-19T15:06:42;9.66;97.76
70421;SHT31;57848;51.938;15.520;2023-11-19T15:09:08;9.62;98.06
70421;SHT31;57848;51.938;15.520;2023-11-19T15:11:35;9.66;97.52
70421;SHT31;57848;51.938;15.520;2023-11-19T15:14:00;9.62;97.78
70421;SHT31;57848;51.938;15.520;2023-11-19T15:16:26;9.57;98.48
70421;SHT31;57848;51.938;15.520;2023-11-19T15:18:59;9.56;98.22
70421;SHT31;57848;51.938;15.520;2023-11-19T15:21:26;9.62;97.71
70421;SHT31;57848;51.938;15.520;2023-11-19T15:23:52;9.55;98.03
70421;SHT31;57848;51.938;15.520;2023-11-19T15:26:17;9.52;98.28
70421;SHT31;57848;51.938;15.520;2023-11-19T15:28:44;9.56;97.16
70421;SHT31;57848;51.938;15.520;2023-11-19T15:31:09;9.57;97.36
70421;SHT31;57848;51.938;15.520;2023-11-19T15:33:35;9.63;96.83
70421;SHT31;57848;51.938;15.520;2023-11-19T15:36:00;9.55;97.46
70421;SHT31;57848;51.938;15.520;2023-11-19T15:38:28;9.59;97.10
70421;SHT31;57848;51.938;15.520;2023-11-19T15:40:53;9.59;97.00
70421;SHT31;57848;51.938;15.520;2023-11-19T15:43:19;9.50;97.70